createdAt,value
2023-04-21T00:15:41.978Z,21.40
2023-04-21T00:19:12.642Z,22.70
2023-04-21T00:42:04.416Z,19.00
2023-04-21T00:49:29.673Z,22.70
2023-04-21T00:53:19.423Z,24.00
2023-04-21T00:56:47.736Z,22.40
2023-04-21T01:15:15.231Z,21.30
2023-04-21T01:18:48.496Z,19.80
2023-04-21T01:49:20.285Z,20.60
2023-04-21T01:52:54.353Z,21.90
2023-04-21T01:56:23.779Z,23.50
2023-04-21T01:59:57.462Z,19.90
2023-04-21T02:07:32.972Z,21.20
2023-04-21T02:11:01.249Z,23.30
2023-04-21T02:14:44.077Z,20.70
2023-04-21T02:33:42.895Z,22.60
2023-04-21T02:37:13.307Z,22.90
2023-04-21T02:40:59.652Z,21.70
2023-04-21T02:47:59.678Z,20.50
2023-04-21T03:06:29.616Z,19.90
2023-04-21T03:09:59.896Z,21.10
2023-04-21T03:13:32.913Z,20.40
2023-04-21T03:17:02.610Z,24.90
2023-04-21T03:20:32.380Z,20.40
2023-04-21T03:37:10.066Z,19.70
2023-04-21T04:08:05.077Z,20.90
2023-04-21T04:30:13.032Z,18.50
2023-04-21T04:33:54.889Z,20.90
2023-04-21T04:59:35.453Z,15.80
2023-04-21T05:03:07.622Z,16.60
2023-04-21T05:06:00.027Z,16.30
2023-04-21T05:09:30.352Z,16.20
2023-04-21T05:17:06.394Z,17.50
2023-04-21T05:20:39.275Z,18.10
2023-04-21T05:23:44.492Z,14.50
2023-04-21T05:26:52.773Z,14.40
2023-04-21T05:32:37.625Z,17.90
2023-04-21T05:36:47.035Z,15.40
2023-04-21T05:40:09.592Z,14.90
2023-04-21T05:43:59.635Z,13.10
2023-04-21T05:47:40.012Z,11.20
2023-04-21T06:08:11.719Z,9.70
2023-04-21T06:23:33.876Z,11.30
2023-04-21T06:27:04.507Z,9.00
2023-04-21T06:37:11.579Z,9.20
2023-04-21T06:40:43.166Z,10.90
2023-04-21T06:44:12.969Z,9.50
2023-04-21T06:47:48.565Z,8.30
2023-04-21T06:51:39.321Z,8.80
2023-04-21T07:16:55.275Z,8.00
2023-04-21T07:19:37.255Z,7.80
2023-04-21T07:22:41.188Z,9.00
2023-04-21T07:28:07.461Z,7.50
2023-04-21T07:30:37.413Z,6.80
2023-04-21T07:33:07.676Z,8.60
2023-04-21T07:35:36.484Z,8.10
2023-04-21T07:38:05.202Z,7.50
2023-04-21T07:40:34.028Z,9.00
2023-04-21T07:43:02.788Z,8.80
2023-04-21T07:45:31.764Z,7.80
2023-04-21T07:48:00.717Z,8.80
2023-04-21T07:51:00.905Z,7.30
2023-04-21T07:53:31.390Z,9.70
2023-04-21T07:56:00.641Z,8.50
2023-04-21T07:58:29.650Z,8.70
2023-04-21T08:00:58.414Z,8.70
2023-04-21T08:03:27.486Z,7.40
2023-04-21T08:05:57.012Z,7.90
2023-04-21T08:08:25.926Z,8.10
2023-04-21T08:10:54.966Z,10.00
2023-04-21T08:13:25.868Z,8.20
2023-04-21T08:15:55.381Z,8.10
2023-04-21T08:18:24.202Z,8.70
2023-04-21T08:20:53.070Z,7.70
2023-04-21T08:23:22.397Z,7.90
2023-04-21T08:25:51.240Z,7.80
2023-04-21T08:28:20.766Z,7.80
2023-04-21T08:30:50.039Z,7.70
2023-04-21T08:33:18.913Z,7.60
2023-04-21T08:35:59.199Z,8.80
2023-04-21T08:38:33.142Z,9.00
2023-04-21T08:41:05.663Z,7.60
2023-04-21T08:43:35.488Z,6.60
2023-04-21T08:46:07.935Z,7.50
2023-04-21T08:48:39.219Z,6.70
2023-04-21T08:55:00.616Z,7.10
2023-04-21T09:01:08.785Z,7.20
2023-04-21T09:04:42.955Z,6.90
2023-04-21T09:10:59.419Z,7.90
2023-04-21T09:14:06.188Z,7.30
2023-04-21T09:17:30.747Z,7.20
2023-04-21T09:20:41.438Z,7.10
2023-04-21T09:55:04.719Z,6.70
2023-04-21T09:58:21.660Z,11.20
2023-04-21T10:04:49.872Z,6.50
2023-04-21T10:08:16.039Z,6.80
2023-04-21T10:11:17.712Z,5.80
2023-04-21T10:14:11.415Z,7.20
2023-04-21T10:17:20.796Z,7.60
2023-04-21T10:24:25.827Z,6.80
2023-04-21T10:27:37.177Z,8.20
2023-04-21T10:30:21.253Z,7.90
2023-04-21T10:33:06.432Z,8.10
2023-04-21T10:36:21.345Z,6.60
2023-04-21T10:39:17.332Z,6.40
2023-04-21T10:41:51.682Z,6.90
2023-04-21T10:44:22.606Z,8.50
2023-04-21T10:46:57.122Z,7.80
2023-04-21T10:49:52.197Z,7.10
2023-04-21T10:53:04.544Z,5.70
2023-04-21T10:56:15.347Z,6.50
2023-04-21T10:59:16.560Z,7.10
2023-04-21T11:02:20.281Z,7.60
2023-04-21T11:05:14.523Z,7.10
2023-04-21T11:09:09.154Z,6.40
2023-04-21T11:12:20.400Z,6.50
2023-04-21T11:15:17.403Z,7.40
2023-04-21T11:18:54.761Z,6.60
2023-04-21T11:21:58.511Z,5.80
2023-04-21T11:28:23.715Z,5.60
2023-04-21T11:31:05.221Z,5.60
2023-04-21T11:37:45.396Z,7.30
2023-04-21T11:40:44.684Z,5.80
2023-04-21T11:44:00.665Z,6.20
2023-04-21T11:51:01.991Z,7.30
2023-04-21T11:54:56.168Z,5.40
2023-04-21T11:58:06.791Z,5.40
2023-04-21T12:01:30.034Z,5.90
2023-04-21T12:04:35.645Z,5.00
2023-04-21T12:07:53.703Z,5.60
2023-04-21T12:20:10.244Z,6.10
2023-04-21T12:23:15.701Z,8.70
2023-04-21T12:26:23.007Z,7.90
2023-04-21T12:29:58.864Z,5.40
2023-04-21T12:33:14.169Z,9.40
2023-04-21T12:36:29.163Z,11.60
2023-04-21T12:42:51.671Z,4.60
2023-04-21T12:46:17.125Z,5.50
2023-04-21T12:49:33.957Z,6.30
2023-04-21T12:52:57.802Z,7.90
2023-04-21T12:56:05.758Z,7.60
2023-04-21T13:02:31.131Z,4.70
2023-04-21T13:05:54.872Z,7.50
2023-04-21T13:09:29.037Z,5.60
2023-04-21T13:13:02.834Z,9.20
2023-04-21T13:16:20.946Z,6.10
2023-04-21T13:19:46.816Z,4.90
2023-04-21T13:23:01.795Z,10.00
2023-04-21T13:26:43.552Z,5.60
2023-04-21T13:29:57.405Z,4.60
2023-04-21T13:33:07.366Z,5.70
2023-04-21T13:36:16.315Z,5.50
2023-04-21T13:39:31.033Z,6.10
2023-04-21T13:42:34.901Z,7.50
2023-04-21T13:45:44.928Z,6.20
2023-04-21T13:48:59.258Z,5.50
2023-04-21T13:52:13.919Z,4.50
2023-04-21T13:58:10.416Z,5.30
2023-04-21T14:01:21.618Z,6.10
2023-04-21T14:04:31.267Z,6.80
2023-04-21T14:07:41.876Z,7.30
2023-04-21T14:10:59.648Z,8.60
2023-04-21T14:14:09.701Z,6.30
2023-04-21T14:17:11.799Z,4.70
2023-04-21T14:23:45.166Z,5.50
2023-04-21T14:26:55.006Z,5.40
2023-04-21T14:30:06.062Z,8.60
2023-04-21T14:33:15.243Z,9.60
2023-04-21T14:36:31.573Z,5.50
2023-04-21T14:39:45.072Z,4.80
2023-04-21T14:42:54.712Z,7.70
2023-04-21T14:46:09.158Z,6.10
2023-04-21T14:49:21.075Z,5.70
2023-04-21T14:52:32.043Z,8.30
2023-04-21T14:55:54.961Z,6.20
2023-04-21T15:04:30.192Z,7.20
2023-04-21T15:08:04.381Z,5.20
2023-04-21T15:37:07.229Z,6.40
2023-04-21T15:47:26.595Z,5.80
2023-04-21T15:54:36.692Z,6.80
2023-04-21T16:01:15.248Z,5.50
2023-04-21T16:04:25.339Z,5.20
2023-04-21T16:07:50.136Z,5.70
2023-04-21T16:11:23.807Z,5.80
2023-04-21T16:18:53.605Z,5.80
2023-04-21T16:22:18.985Z,5.70
2023-04-21T16:51:11.959Z,6.30
2023-04-21T16:54:18.167Z,6.00
2023-04-21T16:57:47.026Z,9.10
2023-04-21T17:00:59.834Z,9.80
2023-04-21T17:07:49.945Z,11.90
2023-04-21T17:24:05.199Z,8.10
2023-04-21T17:27:11.497Z,8.60
2023-04-21T17:30:51.705Z,8.80
2023-04-21T17:34:12.368Z,8.20
2023-04-21T17:37:40.952Z,7.30
2023-04-21T17:41:03.329Z,7.90
2023-04-21T17:48:06.083Z,8.30
2023-04-21T17:51:31.351Z,7.20
2023-04-21T17:54:50.122Z,9.50
2023-04-21T18:02:43.788Z,11.80
2023-04-21T18:06:27.837Z,14.30
2023-04-21T18:10:10.749Z,24.60
2023-04-21T18:39:30.136Z,7.70
2023-04-21T18:43:02.506Z,5.90
2023-04-21T18:46:39.234Z,5.60
2023-04-21T19:09:30.466Z,7.10
2023-04-21T19:13:14.184Z,8.20
2023-04-21T19:17:03.493Z,7.70
2023-04-21T19:35:29.784Z,14.00
2023-04-21T19:39:08.386Z,15.40
2023-04-21T19:42:41.971Z,16.90
2023-04-21T19:46:14.971Z,23.90
2023-04-21T19:49:53.360Z,41.40
2023-04-21T19:57:26.502Z,29.60
2023-04-21T20:00:55.425Z,24.60
2023-04-21T20:04:44.921Z,19.20
2023-04-21T20:08:27.079Z,29.10
2023-04-21T20:12:09.870Z,22.30
2023-04-21T20:15:47.935Z,27.90
2023-04-21T20:19:17.686Z,28.10
2023-04-21T20:26:49.208Z,13.30
2023-04-21T20:55:36.039Z,15.80
2023-04-21T20:59:24.900Z,11.10
2023-04-21T21:24:59.290Z,12.90
2023-04-21T21:28:41.074Z,12.20
2023-04-21T21:58:04.020Z,13.40
2023-04-21T22:01:52.018Z,11.10
2023-04-21T22:04:38.033Z,14.30
2023-04-21T22:08:14.427Z,13.70
2023-04-21T22:11:55.708Z,12.90
2023-04-21T22:15:37.574Z,13.90
2023-04-21T22:19:08.157Z,12.30
2023-04-21T22:22:38.406Z,11.90
2023-04-21T22:26:11.652Z,12.20
2023-04-21T23:12:05.840Z,14.20
